createdAt,value
2019-05-19T00:01:44.705Z,129.25
2019-05-19T00:04:14.188Z,126.42
2019-05-19T00:06:45.274Z,130.97
2019-05-19T00:09:20.105Z,123.58
2019-05-19T00:12:26.101Z,131.43
2019-05-19T00:15:15.114Z,129.15
2019-05-19T00:17:45.594Z,135.95
2019-05-19T00:20:20.493Z,135.07
2019-05-19T00:22:55.275Z,137.22
2019-05-19T00:25:27.765Z,132.37
2019-05-19T00:28:00.965Z,132.12
2019-05-19T00:30:29.949Z,133.52
2019-05-19T00:33:36.523Z,137.37
2019-05-19T00:36:13.843Z,141.53
2019-05-19T00:38:45.783Z,141.12
2019-05-19T00:41:17.771Z,150.95
2019-05-19T00:43:52.348Z,140.22
2019-05-19T00:46:27.138Z,137.25
2019-05-19T00:49:07.290Z,148.10
2019-05-19T00:51:39.554Z,130.50
2019-05-19T00:54:11.592Z,129.15
2019-05-19T00:56:40.917Z,131.90
2019-05-19T00:59:12.643Z,128.57
2019-05-19T01:01:44.406Z,132.25
2019-05-19T01:04:16.315Z,134.05
2019-05-19T01:06:57.513Z,139.70
2019-05-19T01:09:32.017Z,140.65
2019-05-19T01:12:03.972Z,134.75
2019-05-19T01:14:46.604Z,144.95
2019-05-19T01:17:16.423Z,130.55
2019-05-19T01:19:55.878Z,137.75
2019-05-19T01:22:21.807Z,137.20
2019-05-19T01:24:53.865Z,137.95
2019-05-19T01:27:32.096Z,144.53
2019-05-19T01:30:01.839Z,139.70
2019-05-19T01:32:33.167Z,154.20
2019-05-19T01:35:11.375Z,140.40
2019-05-19T01:37:46.237Z,140.37
2019-05-19T01:40:17.694Z,135.72
2019-05-19T01:45:18.171Z,139.07
2019-05-19T01:47:47.068Z,148.00
2019-05-19T01:50:21.884Z,148.22
2019-05-19T01:52:56.870Z,142.55
2019-05-19T01:55:28.674Z,146.05
2019-05-19T01:58:06.818Z,147.17
2019-05-19T02:00:38.729Z,162.62
2019-05-19T02:03:10.348Z,158.50
2019-05-19T02:05:40.086Z,163.57
2019-05-19T02:08:09.321Z,155.20
2019-05-19T02:10:44.498Z,154.63
2019-05-19T02:13:18.991Z,168.13
2019-05-19T02:16:11.803Z,171.20
2019-05-19T02:18:50.438Z,146.07
2019-05-19T02:21:21.030Z,155.30
2019-05-19T02:23:49.996Z,156.63
2019-05-19T02:26:24.574Z,147.50
2019-05-19T02:28:56.162Z,161.22
2019-05-19T02:31:31.126Z,159.05
2019-05-19T02:34:05.823Z,156.70
2019-05-19T02:36:37.598Z,162.92
2019-05-19T02:39:12.200Z,161.95
2019-05-19T02:41:46.051Z,150.03
2019-05-19T02:44:15.038Z,146.37
2019-05-19T02:46:51.509Z,149.25
2019-05-19T02:49:23.474Z,146.80
2019-05-19T02:51:56.473Z,151.30
2019-05-19T02:54:26.101Z,150.00
2019-05-19T02:57:02.484Z,144.75
2019-05-19T02:59:32.398Z,141.47
2019-05-19T03:02:10.375Z,149.25
2019-05-19T03:04:41.871Z,150.10
2019-05-19T03:09:52.945Z,146.57
2019-05-19T03:12:27.688Z,153.45
2019-05-19T03:14:56.522Z,152.85
2019-05-19T03:17:28.196Z,158.80
2019-05-19T03:20:02.722Z,153.35
2019-05-19T03:22:41.298Z,161.43
2019-05-19T03:25:13.229Z,155.75
2019-05-19T03:27:45.136Z,155.00
2019-05-19T03:30:28.807Z,155.22
2019-05-19T03:33:05.331Z,156.05
2019-05-19T03:35:36.197Z,155.60
2019-05-19T03:38:10.962Z,151.30
2019-05-19T03:41:48.710Z,154.18
2019-05-19T03:44:23.562Z,152.00
2019-05-19T03:46:53.323Z,150.93
2019-05-19T03:52:50.805Z,147.00
2019-05-19T03:55:19.528Z,143.82
2019-05-19T03:57:54.342Z,151.70
2019-05-19T04:00:25.877Z,153.20
2019-05-19T04:02:57.222Z,147.62
2019-05-19T04:05:31.730Z,146.82
2019-05-19T04:08:03.696Z,154.38
2019-05-19T04:10:48.449Z,151.68
2019-05-19T04:13:17.095Z,150.10
2019-05-19T04:15:51.888Z,146.45
2019-05-19T04:18:22.492Z,151.35
2019-05-19T04:20:53.363Z,143.85
2019-05-19T04:23:28.076Z,151.55
2019-05-19T04:25:57.880Z,142.15
2019-05-19T04:28:27.676Z,141.03
2019-05-19T04:31:06.456Z,144.37
2019-05-19T04:33:41.923Z,139.95
2019-05-19T04:36:16.478Z,140.43
2019-05-19T04:38:47.328Z,135.45
2019-05-19T04:41:16.067Z,139.45
2019-05-19T04:43:50.650Z,126.87
2019-05-19T04:46:22.457Z,134.93
2019-05-19T04:48:53.900Z,127.53
2019-05-19T04:54:27.651Z,120.87
2019-05-19T04:57:06.636Z,132.30
2019-05-19T04:59:39.356Z,127.00
2019-05-19T05:02:14.168Z,119.87
2019-05-19T05:04:49.779Z,123.13
2019-05-19T05:07:18.784Z,125.20
2019-05-19T05:10:00.429Z,122.98
2019-05-19T05:12:30.479Z,122.72
2019-05-19T05:15:02.665Z,127.00
2019-05-19T05:17:39.732Z,117.20
2019-05-19T05:20:11.750Z,112.40
2019-05-19T05:22:47.803Z,114.03
2019-05-19T05:25:18.069Z,110.52
2019-05-19T05:27:49.351Z,111.95
2019-05-19T05:30:24.091Z,109.97
2019-05-19T05:33:18.662Z,115.52
2019-05-19T05:35:48.705Z,106.60
2019-05-19T05:38:31.531Z,115.20
2019-05-19T05:41:00.801Z,107.58
2019-05-19T05:43:35.265Z,117.80
2019-05-19T05:46:07.039Z,108.72
2019-05-19T05:48:44.679Z,111.47
2019-05-19T05:51:17.567Z,108.52
2019-05-19T05:53:50.031Z,108.78
2019-05-19T05:56:19.143Z,112.08
2019-05-19T05:58:54.028Z,110.60
2019-05-19T06:01:41.311Z,108.63
2019-05-19T06:04:10.600Z,106.52
2019-05-19T06:06:44.042Z,108.15
2019-05-19T06:09:22.375Z,108.97
2019-05-19T06:11:57.246Z,107.00
2019-05-19T06:14:28.983Z,110.25
2019-05-19T06:17:00.993Z,107.00
2019-05-19T06:19:29.743Z,104.30
2019-05-19T06:22:15.708Z,99.65
2019-05-19T06:25:08.354Z,104.32
2019-05-19T06:27:43.387Z,109.57
2019-05-19T06:30:15.734Z,106.75
2019-05-19T06:32:54.927Z,104.17
2019-05-19T06:35:25.518Z,107.95
2019-05-19T06:37:56.455Z,109.17
2019-05-19T06:40:31.999Z,109.55
2019-05-19T06:43:03.359Z,112.70
2019-05-19T06:48:05.058Z,109.72
2019-05-19T06:50:34.916Z,110.57
2019-05-19T06:53:15.053Z,105.83
2019-05-19T06:55:48.793Z,100.53
2019-05-19T06:58:17.577Z,105.35
2019-05-19T07:00:49.676Z,107.87
2019-05-19T07:03:25.486Z,103.55
2019-05-19T07:05:55.255Z,101.30
2019-05-19T07:08:34.975Z,100.30
2019-05-19T07:11:03.558Z,99.28
2019-05-19T07:13:38.624Z,98.87
2019-05-19T07:19:12.501Z,95.75
2019-05-19T07:21:43.098Z,91.97
2019-05-19T07:24:25.775Z,96.37
2019-05-19T07:26:57.448Z,100.07
2019-05-19T07:29:54.199Z,95.90
2019-05-19T07:32:23.659Z,96.37
2019-05-19T07:34:59.166Z,96.30
2019-05-19T07:37:27.945Z,97.22
2019-05-19T07:40:27.027Z,99.00
2019-05-19T07:43:21.512Z,102.70
2019-05-19T07:45:56.904Z,96.55
2019-05-19T07:48:28.335Z,100.40
2019-05-19T07:51:05.448Z,107.63
2019-05-19T07:53:42.670Z,106.03
2019-05-19T07:56:07.111Z,115.37
2019-05-19T07:58:39.024Z,118.53
2019-05-19T08:01:10.419Z,119.42
2019-05-19T08:06:18.769Z,114.82
2019-05-19T08:08:52.370Z,111.70
2019-05-19T08:11:24.961Z,106.52
2019-05-19T08:13:56.420Z,102.32
2019-05-19T08:16:36.255Z,102.00
2019-05-19T08:19:07.910Z,97.72
2019-05-19T08:21:40.108Z,102.92
2019-05-19T08:24:11.630Z,97.90
2019-05-19T08:26:46.085Z,94.97
2019-05-19T08:29:16.884Z,92.88
2019-05-19T08:31:48.801Z,91.92
2019-05-19T08:34:20.048Z,93.58
2019-05-19T08:39:28.610Z,92.33
2019-05-19T08:41:59.650Z,91.32
2019-05-19T08:44:31.079Z,87.55
2019-05-19T08:47:05.495Z,88.33
2019-05-19T08:49:34.262Z,85.65
2019-05-19T08:52:09.178Z,86.25
2019-05-19T08:54:38.026Z,89.03
2019-05-19T08:57:23.263Z,88.78
2019-05-19T08:59:53.008Z,84.05
2019-05-19T09:02:28.967Z,78.12
2019-05-19T09:04:58.886Z,82.08
2019-05-19T09:07:30.927Z,81.57
2019-05-19T09:10:02.804Z,87.78
2019-05-19T09:12:34.236Z,85.40
2019-05-19T09:15:09.283Z,84.92
2019-05-19T09:17:45.742Z,81.37
2019-05-19T09:20:33.970Z,82.30
2019-05-19T09:23:04.699Z,80.25
2019-05-19T09:25:41.071Z,75.32
2019-05-19T09:28:19.176Z,75.03
2019-05-19T09:30:47.752Z,71.33
2019-05-19T09:33:19.570Z,72.82
2019-05-19T09:35:55.022Z,75.47
2019-05-19T09:38:29.577Z,76.07
2019-05-19T09:40:58.237Z,81.95
2019-05-19T09:43:36.364Z,74.45
2019-05-19T09:46:06.231Z,77.25
2019-05-19T09:48:39.501Z,78.95
2019-05-19T09:51:42.572Z,77.22
2019-05-19T09:54:16.945Z,72.40
2019-05-19T09:57:33.009Z,74.72
2019-05-19T10:00:02.897Z,75.50
2019-05-19T10:02:36.136Z,69.87
2019-05-19T10:05:18.376Z,65.90
2019-05-19T10:07:55.147Z,65.62
2019-05-19T10:10:33.505Z,63.73
2019-05-19T10:13:02.175Z,62.45
2019-05-19T10:15:32.789Z,63.00
2019-05-19T10:18:01.418Z,60.10
2019-05-19T10:20:32.801Z,62.35
2019-05-19T10:23:04.479Z,59.53
2019-05-19T10:25:42.337Z,60.83
2019-05-19T10:28:21.809Z,61.75
2019-05-19T10:30:50.403Z,58.20
2019-05-19T10:33:24.712Z,55.98
2019-05-19T10:35:54.314Z,57.40
2019-05-19T10:38:28.763Z,58.08
2019-05-19T10:41:00.525Z,60.55
2019-05-19T10:43:29.136Z,59.18
2019-05-19T10:46:06.404Z,60.60
2019-05-19T10:48:41.333Z,58.80
2019-05-19T10:51:10.854Z,63.95
2019-05-19T10:54:00.795Z,62.75
2019-05-19T10:56:36.161Z,64.10
2019-05-19T10:59:24.972Z,63.87
2019-05-19T11:01:54.135Z,60.03
2019-05-19T11:04:23.993Z,56.65
2019-05-19T11:07:11.845Z,54.95
2019-05-19T11:09:45.315Z,54.83
2019-05-19T11:12:48.787Z,51.50
2019-05-19T11:15:23.293Z,52.40
2019-05-19T11:17:52.306Z,51.18
2019-05-19T11:20:28.899Z,51.20
2019-05-19T11:23:03.606Z,48.00
2019-05-19T11:25:34.365Z,49.45
2019-05-19T11:28:06.861Z,48.48
2019-05-19T11:30:41.222Z,45.05
2019-05-19T11:33:14.981Z,45.23
2019-05-19T11:35:46.619Z,43.58
2019-05-19T11:38:21.097Z,42.38
2019-05-19T11:40:53.375Z,39.40
2019-05-19T11:43:27.756Z,41.48
2019-05-19T11:45:59.112Z,45.17
2019-05-19T11:48:30.240Z,43.08
2019-05-19T11:51:00.256Z,42.98
2019-05-19T11:53:32.492Z,44.13
2019-05-19T11:56:07.321Z,43.80
2019-05-19T11:58:41.101Z,44.73
2019-05-19T12:01:17.438Z,47.90
2019-05-19T12:03:55.504Z,46.00
2019-05-19T12:06:38.137Z,48.40
2019-05-19T12:11:40.866Z,48.63
2019-05-19T12:14:39.847Z,47.58
2019-05-19T12:17:14.775Z,46.75
2019-05-19T12:19:45.988Z,47.45
2019-05-19T12:22:14.600Z,47.35
2019-05-19T12:24:54.396Z,50.52
2019-05-19T12:27:28.884Z,50.58
2019-05-19T12:29:59.379Z,49.35
2019-05-19T12:32:31.679Z,49.93
2019-05-19T12:35:07.445Z,48.65
2019-05-19T12:37:42.095Z,49.23
2019-05-19T12:40:13.484Z,49.50
2019-05-19T12:42:42.183Z,48.58
2019-05-19T12:45:11.385Z,50.92
2019-05-19T12:47:46.633Z,55.40
2019-05-19T12:50:16.476Z,54.67
2019-05-19T12:52:46.975Z,51.02
2019-05-19T12:55:45.348Z,55.23
2019-05-19T12:58:18.750Z,49.58
2019-05-19T13:00:59.496Z,54.40
2019-05-19T13:03:28.201Z,51.28
2019-05-19T13:06:10.925Z,52.60
2019-05-19T13:08:58.166Z,56.65
2019-05-19T13:12:01.244Z,54.77
2019-05-19T13:18:08.112Z,53.70
2019-05-19T13:20:37.740Z,55.73
2019-05-19T13:23:06.394Z,55.35
2019-05-19T13:25:38.058Z,54.13
2019-05-19T13:28:18.826Z,51.80
2019-05-19T13:30:50.685Z,51.75
2019-05-19T13:33:20.383Z,52.00
2019-05-19T13:36:00.001Z,52.40
2019-05-19T13:38:31.397Z,50.10
2019-05-19T13:41:09.247Z,50.95
2019-05-19T13:43:37.884Z,51.15
2019-05-19T13:46:09.157Z,49.67
2019-05-19T13:48:38.691Z,51.98
2019-05-19T13:51:17.203Z,53.55
2019-05-19T13:53:45.807Z,55.78
2019-05-19T13:56:14.536Z,53.55
2019-05-19T13:58:46.160Z,53.05
2019-05-19T14:01:29.863Z,50.10
2019-05-19T14:03:58.650Z,50.10
2019-05-19T14:06:33.016Z,48.33
2019-05-19T14:09:03.000Z,48.80
2019-05-19T14:11:34.331Z,50.83
2019-05-19T14:14:15.982Z,53.45
2019-05-19T14:16:51.251Z,53.17
2019-05-19T14:19:23.052Z,51.02
2019-05-19T14:21:54.408Z,50.63
2019-05-19T14:24:28.420Z,49.15
2019-05-19T14:27:00.188Z,49.40
2019-05-19T14:29:31.801Z,48.28
2019-05-19T14:32:00.464Z,47.95
2019-05-19T14:34:29.107Z,50.90
2019-05-19T14:37:03.431Z,50.63
2019-05-19T14:39:32.075Z,54.40
2019-05-19T14:42:04.457Z,52.83
2019-05-19T14:44:50.148Z,51.68
2019-05-19T14:47:22.058Z,57.78
2019-05-19T14:49:57.910Z,52.17
2019-05-19T14:52:32.897Z,54.65
2019-05-19T14:55:04.473Z,60.73
2019-05-19T14:57:44.411Z,59.65
2019-05-19T15:00:09.076Z,60.45
2019-05-19T15:02:43.645Z,59.08
2019-05-19T15:05:19.265Z,63.28
2019-05-19T15:07:53.685Z,62.33
2019-05-19T15:10:29.081Z,64.82
2019-05-19T15:13:00.412Z,65.17
2019-05-19T15:15:32.098Z,65.37
2019-05-19T15:18:06.651Z,65.72
2019-05-19T15:20:41.466Z,61.85
2019-05-19T15:23:11.076Z,65.87
2019-05-19T15:25:49.127Z,66.87
2019-05-19T15:28:17.821Z,66.92
2019-05-19T15:30:52.254Z,68.67
2019-05-19T15:33:22.019Z,68.85
2019-05-19T15:35:53.433Z,67.60
2019-05-19T15:38:27.876Z,68.92
2019-05-19T15:41:08.004Z,65.35
2019-05-19T15:43:39.326Z,65.45
2019-05-19T15:46:11.303Z,66.02
2019-05-19T15:48:41.975Z,70.85
2019-05-19T15:51:13.537Z,71.87
2019-05-19T15:53:46.356Z,75.30
2019-05-19T15:56:17.693Z,72.65
2019-05-19T16:01:31.770Z,80.42
2019-05-19T16:04:01.818Z,80.80
2019-05-19T16:06:39.359Z,82.35
2019-05-19T16:09:23.135Z,84.62
2019-05-19T16:11:59.725Z,83.90
2019-05-19T16:14:31.437Z,84.35
2019-05-19T16:17:03.219Z,88.00
2019-05-19T16:19:37.568Z,91.25
2019-05-19T16:22:23.544Z,87.05
2019-05-19T16:24:59.025Z,92.45
2019-05-19T16:27:42.891Z,97.57
2019-05-19T16:30:43.587Z,90.07
2019-05-19T16:33:13.210Z,104.40
2019-05-19T16:35:44.870Z,95.75
2019-05-19T16:38:19.561Z,92.22
2019-05-19T16:40:51.579Z,107.40
2019-05-19T16:43:22.925Z,103.87
2019-05-19T16:48:29.090Z,108.03
2019-05-19T16:50:57.767Z,105.05
2019-05-19T16:53:29.514Z,104.95
2019-05-19T16:56:31.914Z,101.35
2019-05-19T16:59:13.491Z,100.75
2019-05-19T17:01:42.108Z,105.35
2019-05-19T17:04:13.566Z,103.27
2019-05-19T17:06:42.331Z,99.65
2019-05-19T17:09:18.911Z,106.67
2019-05-19T17:11:56.078Z,102.20
2019-05-19T17:14:26.806Z,109.63
2019-05-19T17:16:58.036Z,115.52
2019-05-19T17:19:34.656Z,101.80
2019-05-19T17:22:11.673Z,109.27
2019-05-19T17:24:40.590Z,112.80
2019-05-19T17:27:11.249Z,102.15
2019-05-19T17:30:12.011Z,103.45
2019-05-19T17:32:43.626Z,104.12
2019-05-19T17:35:13.534Z,111.40
2019-05-19T17:37:43.723Z,108.90
2019-05-19T17:40:19.172Z,112.20
2019-05-19T17:42:54.585Z,115.35
2019-05-19T17:45:25.926Z,109.50
2019-05-19T17:48:10.016Z,112.60
2019-05-19T17:50:44.268Z,117.47
2019-05-19T17:53:13.768Z,127.65
2019-05-19T17:55:49.222Z,124.90
2019-05-19T17:58:20.220Z,127.20
2019-05-19T18:00:55.376Z,121.82
2019-05-19T18:03:27.987Z,116.15
2019-05-19T18:05:57.178Z,132.55
2019-05-19T18:08:27.236Z,135.18
2019-05-19T18:11:00.178Z,134.85
2019-05-19T18:16:34.590Z,150.40
2019-05-19T18:19:15.297Z,152.85
2019-05-19T18:21:45.024Z,153.67
2019-05-19T18:24:22.472Z,149.87
2019-05-19T18:26:57.212Z,137.68
2019-05-19T18:29:31.271Z,145.12
2019-05-19T18:32:00.614Z,157.90
2019-05-19T18:34:31.993Z,137.05
2019-05-19T18:37:03.222Z,138.77
2019-05-19T18:39:42.483Z,144.85
2019-05-19T18:42:13.090Z,133.00
2019-05-19T18:44:44.813Z,145.80
2019-05-19T18:47:21.027Z,137.32
2019-05-19T18:49:51.301Z,145.43
2019-05-19T18:52:35.122Z,149.47
2019-05-19T18:55:07.169Z,152.40
2019-05-19T18:58:12.732Z,164.77
2019-05-19T19:00:50.073Z,175.53
2019-05-19T19:03:33.683Z,166.05
2019-05-19T19:06:09.848Z,167.85
2019-05-19T19:08:38.456Z,177.87
2019-05-19T19:11:51.476Z,172.95
2019-05-19T19:14:20.233Z,164.00
2019-05-19T19:16:54.932Z,167.57
2019-05-19T19:19:23.585Z,175.25
2019-05-19T19:21:55.026Z,184.28
2019-05-19T19:24:32.370Z,175.03
2019-05-19T19:27:08.797Z,180.18
2019-05-19T19:29:43.393Z,200.18
2019-05-19T19:32:14.148Z,196.90
2019-05-19T19:34:48.696Z,207.83
2019-05-19T19:37:20.130Z,192.13
2019-05-19T19:39:51.534Z,203.67
2019-05-19T19:42:26.107Z,185.30
2019-05-19T19:44:54.735Z,192.05
2019-05-19T19:47:40.100Z,186.15
2019-05-19T19:50:11.447Z,182.72
2019-05-19T19:52:41.959Z,175.65
2019-05-19T19:55:17.698Z,177.68
2019-05-19T19:58:09.575Z,188.03
2019-05-19T20:00:42.769Z,178.85
2019-05-19T20:03:17.786Z,183.60
2019-05-19T20:06:14.723Z,177.80
2019-05-19T20:08:49.376Z,182.53
2019-05-19T20:11:17.979Z,179.95
2019-05-19T20:13:59.917Z,173.93
2019-05-19T20:16:29.326Z,169.60
2019-05-19T20:18:59.832Z,185.30
2019-05-19T20:21:28.569Z,173.90
2019-05-19T20:24:10.564Z,172.90
2019-05-19T20:26:45.072Z,157.40
2019-05-19T20:29:17.108Z,156.65
2019-05-19T20:31:45.808Z,152.20
2019-05-19T20:34:17.338Z,146.07
2019-05-19T20:39:18.540Z,140.88
2019-05-19T20:41:59.163Z,143.45
2019-05-19T20:44:29.796Z,118.93
2019-05-19T20:47:01.021Z,121.17
2019-05-19T20:49:32.598Z,109.80
2019-05-19T20:52:16.197Z,110.60
2019-05-19T20:54:54.235Z,111.45
2019-05-19T20:57:40.763Z,121.77
2019-05-19T21:00:20.252Z,112.65
2019-05-19T21:02:51.926Z,117.17
2019-05-19T21:05:23.155Z,116.55
2019-05-19T21:07:54.753Z,121.72
2019-05-19T21:10:47.221Z,128.15
2019-05-19T21:13:15.818Z,126.75
2019-05-19T21:15:44.504Z,122.60
2019-05-19T21:18:13.186Z,121.25
2019-05-19T21:20:41.811Z,114.47
2019-05-19T21:23:17.368Z,118.80
2019-05-19T21:25:45.940Z,117.45
2019-05-19T21:28:17.328Z,133.32
2019-05-19T21:30:48.608Z,121.37
2019-05-19T21:33:23.175Z,126.60
2019-05-19T21:35:56.024Z,124.65
2019-05-19T21:38:37.293Z,121.07
2019-05-19T21:41:08.900Z,130.70
2019-05-19T21:46:18.379Z,124.80
2019-05-19T21:48:47.010Z,126.65
2019-05-19T21:51:24.722Z,134.95
2019-05-19T21:53:53.385Z,127.92
2019-05-19T21:56:22.102Z,126.50
2019-05-19T21:59:24.617Z,125.15
2019-05-19T22:01:59.321Z,139.00
2019-05-19T22:04:30.569Z,134.07
2019-05-19T22:07:02.788Z,127.22
2019-05-19T22:09:34.080Z,135.07
2019-05-19T22:12:03.164Z,136.55
2019-05-19T22:14:37.505Z,133.03
2019-05-19T22:17:12.127Z,133.37
2019-05-19T22:19:43.772Z,155.45
2019-05-19T22:22:12.536Z,156.97
2019-05-19T22:24:48.035Z,160.10
2019-05-19T22:27:36.084Z,158.68
2019-05-19T22:30:10.677Z,154.60
2019-05-19T22:32:42.801Z,170.35
2019-05-19T22:35:17.531Z,196.02
2019-05-19T22:37:52.417Z,218.85
2019-05-19T22:40:21.048Z,243.63
2019-05-19T22:42:55.431Z,229.75
2019-05-19T22:45:29.959Z,235.72
2019-05-19T22:47:58.612Z,228.35
2019-05-19T22:50:33.244Z,239.32
2019-05-19T22:53:03.964Z,229.07
2019-05-19T22:55:32.700Z,243.78
2019-05-19T22:58:01.290Z,245.25
2019-05-19T23:00:32.069Z,230.03
2019-05-19T23:03:05.047Z,234.75
2019-05-19T23:05:41.594Z,230.52
2019-05-19T23:08:12.915Z,222.30
2019-05-19T23:10:47.479Z,228.15
2019-05-19T23:13:18.110Z,222.90
2019-05-19T23:15:49.441Z,235.73
2019-05-19T23:18:32.206Z,223.28
2019-05-19T23:21:01.690Z,223.18
2019-05-19T23:23:35.977Z,205.40
2019-05-19T23:26:07.250Z,214.05
2019-05-19T23:28:36.624Z,208.68
2019-05-19T23:31:05.209Z,207.92
2019-05-19T23:33:37.574Z,215.65
2019-05-19T23:36:23.387Z,207.55
2019-05-19T23:38:52.043Z,198.75
2019-05-19T23:41:20.700Z,206.45
2019-05-19T23:43:50.435Z,197.05
2019-05-19T23:46:30.706Z,209.62
2019-05-19T23:49:02.056Z,217.47
2019-05-19T23:51:37.982Z,221.37
2019-05-19T23:54:12.519Z,218.48
2019-05-19T23:56:47.355Z,210.95
2019-05-19T23:59:22.057Z,203.50
